createdAt,value
2023-04-12T03:58:55.860Z,42.63
2023-04-12T03:59:55.813Z,42.72
2023-04-12T04:00:55.805Z,42.63
2023-04-12T04:01:55.825Z,42.82
2023-04-12T04:02:55.861Z,42.72
2023-04-12T04:03:56.124Z,42.82
2023-04-12T04:04:55.817Z,42.72
2023-04-12T04:05:55.772Z,42.82
2023-04-12T04:06:55.765Z,42.91
2023-04-12T04:07:55.803Z,42.91
2023-04-12T04:08:55.746Z,43.01
2023-04-12T04:09:55.753Z,43.01
2023-04-12T04:10:55.733Z,42.91
2023-04-12T04:11:55.724Z,43.20
2023-04-12T04:12:55.743Z,43.20
2023-04-12T04:13:56.121Z,42.91
2023-04-12T04:14:55.748Z,43.01
2023-04-12T04:15:55.752Z,43.30
2023-04-12T04:16:55.707Z,43.30
2023-04-12T04:17:55.731Z,43.30
2023-04-12T04:18:55.699Z,43.30
2023-04-12T04:19:55.699Z,43.23
2023-04-12T04:20:55.690Z,43.20
2023-04-12T04:21:55.695Z,43.32
2023-04-12T04:22:55.694Z,43.41
2023-04-12T04:23:55.897Z,43.13
2023-04-12T04:24:55.683Z,43.23
2023-04-12T04:25:55.668Z,43.41
2023-04-12T04:26:55.665Z,43.23
2023-04-12T04:27:55.676Z,43.23
2023-04-12T04:28:55.661Z,43.23
2023-04-12T04:29:55.654Z,43.23
2023-04-12T04:30:55.673Z,43.61
2023-04-12T04:31:55.724Z,43.61
2023-04-12T04:32:55.694Z,43.51
2023-04-12T04:33:55.789Z,43.41
2023-04-12T04:34:55.660Z,43.61
2023-04-12T04:35:55.650Z,43.61
2023-04-12T04:36:55.643Z,43.32
2023-04-12T04:37:55.679Z,43.32
2023-04-12T04:38:55.629Z,43.41
2023-04-12T04:39:55.607Z,43.32
2023-04-12T04:40:55.615Z,43.23
2023-04-12T04:41:55.624Z,43.41
2023-04-12T04:42:55.655Z,43.51
2023-04-12T04:43:55.881Z,43.13
2023-04-12T04:44:55.616Z,43.51
2023-04-12T04:45:55.598Z,43.32
2023-04-12T04:46:55.608Z,43.32
2023-04-12T04:47:55.715Z,43.32
2023-04-12T04:48:55.588Z,43.51
2023-04-12T04:49:55.581Z,43.51
2023-04-12T04:50:55.567Z,43.41
2023-04-12T04:51:55.578Z,43.13
2023-04-12T04:52:55.604Z,43.23
2023-04-12T04:53:55.755Z,43.41
2023-04-12T04:54:55.566Z,43.13
2023-04-12T04:55:55.551Z,43.23
2023-04-12T04:56:55.555Z,43.44
2023-04-12T04:57:55.538Z,43.24
2023-04-12T04:58:57.257Z,43.34
2023-04-12T04:59:55.579Z,43.23
2023-04-12T05:00:55.610Z,43.44
2023-04-12T05:01:55.541Z,43.24
2023-04-12T05:02:55.599Z,43.24
2023-04-12T05:03:55.945Z,43.24
2023-04-12T05:04:55.521Z,43.24
2023-04-12T05:05:55.510Z,43.15
2023-04-12T05:06:55.518Z,43.15
2023-04-12T05:07:55.500Z,43.34
2023-04-12T05:08:55.663Z,43.34
2023-04-12T05:09:55.493Z,43.34
2023-04-12T05:10:55.493Z,43.15
2023-04-12T05:11:55.496Z,43.34
2023-04-12T05:12:55.503Z,43.34
2023-04-12T05:13:55.496Z,43.34
2023-04-12T05:15:04.811Z,43.34
2023-04-12T05:15:55.494Z,43.15
2023-04-12T05:16:55.503Z,43.44
2023-04-12T05:17:55.497Z,43.54
2023-04-12T05:18:55.708Z,43.24
2023-04-12T05:19:55.473Z,43.34
2023-04-12T05:20:55.485Z,43.54
2023-04-12T05:21:55.460Z,43.05
2023-04-12T05:22:55.450Z,43.24
2023-04-12T05:23:55.457Z,43.15
2023-04-12T05:24:55.443Z,43.54
2023-04-12T05:25:55.431Z,43.05
2023-04-12T05:26:55.623Z,43.54
2023-04-12T05:27:55.446Z,43.44
2023-04-12T05:28:55.753Z,43.54
2023-04-12T05:29:55.588Z,43.44
2023-04-12T05:30:55.505Z,43.44
2023-04-12T05:31:55.428Z,43.44
2023-04-12T05:32:55.462Z,43.24
2023-04-12T05:33:55.517Z,43.54
2023-04-12T05:34:55.464Z,43.27
2023-04-12T05:35:55.460Z,43.34
2023-04-12T05:36:55.541Z,43.54
2023-04-12T05:37:56.174Z,43.54
2023-04-12T05:38:55.785Z,43.24
2023-04-12T05:39:55.405Z,43.07
2023-04-12T05:40:55.435Z,43.55
2023-04-12T05:41:55.388Z,43.46
2023-04-12T05:42:55.408Z,43.27
2023-04-12T05:43:55.421Z,43.27
2023-04-12T05:44:55.417Z,43.17
2023-04-12T05:45:56.217Z,43.55
2023-04-12T05:46:55.439Z,43.27
2023-04-12T05:47:55.547Z,43.55
2023-04-12T05:48:55.706Z,43.46
2023-04-12T05:49:55.494Z,43.37
2023-04-12T05:50:55.422Z,43.46
2023-04-12T05:51:55.373Z,42.97
2023-04-12T05:52:55.361Z,43.27
2023-04-12T05:53:55.872Z,43.17
2023-04-12T05:54:56.037Z,43.37
2023-04-12T05:55:57.040Z,43.17
2023-04-12T05:56:55.359Z,43.17
2023-04-12T05:57:56.210Z,43.07
2023-04-12T05:58:55.559Z,42.97
2023-04-12T05:59:55.475Z,43.37
2023-04-12T06:00:55.393Z,43.37
2023-04-12T06:01:55.399Z,42.97
2023-04-12T06:02:55.356Z,43.17
2023-04-12T06:03:55.564Z,42.97
2023-04-12T06:04:55.560Z,42.97
2023-04-12T06:05:55.307Z,43.07
2023-04-12T06:06:55.427Z,42.97
2023-04-12T06:07:55.311Z,42.97
2023-04-12T06:08:55.470Z,43.07
2023-04-12T06:10:55.348Z,42.97
2023-04-12T06:11:55.290Z,42.97
2023-04-12T06:12:55.293Z,42.97
2023-04-12T06:13:55.308Z,42.97
2023-04-12T06:14:55.352Z,42.88
2023-04-12T06:15:55.341Z,43.07
2023-04-12T06:16:55.278Z,42.97
2023-04-12T06:17:55.351Z,42.97
2023-04-12T06:18:55.562Z,42.80
2023-04-12T06:19:55.472Z,42.80
2023-04-12T06:20:55.265Z,42.90
2023-04-12T06:21:55.256Z,42.90
2023-04-12T06:22:55.276Z,42.90
2023-04-12T06:23:55.299Z,42.90
2023-04-12T06:24:55.254Z,43.00
2023-04-12T06:25:55.280Z,43.00
2023-04-12T06:26:55.315Z,42.80
2023-04-12T06:27:55.238Z,42.90
2023-04-12T06:28:55.741Z,42.80
2023-04-12T06:29:55.241Z,42.80
2023-04-12T06:30:55.255Z,43.00
2023-04-12T06:31:55.204Z,42.90
2023-04-12T06:32:55.409Z,42.80
2023-04-12T06:35:27.793Z,42.90
2023-04-12T06:36:27.791Z,42.80
2023-04-12T06:37:27.789Z,43.00
2023-04-12T06:38:27.772Z,42.90
2023-04-12T06:39:27.771Z,42.71
2023-04-12T06:40:27.753Z,42.80
2023-04-12T06:41:27.738Z,43.00
2023-04-12T06:42:27.771Z,42.71
2023-04-12T06:43:27.762Z,43.00
2023-04-12T06:44:27.726Z,42.80
2023-04-12T06:45:27.793Z,43.00
2023-04-12T06:46:28.088Z,42.80
2023-04-12T06:47:27.771Z,42.90
2023-04-12T06:48:27.763Z,42.90
2023-04-12T06:49:27.773Z,42.90
2023-04-12T06:50:27.775Z,42.80
2023-04-12T06:51:28.368Z,42.80
2023-04-12T06:52:27.776Z,42.80
2023-04-12T06:53:27.765Z,42.90
2023-04-12T06:54:27.773Z,42.90
2023-04-12T06:55:27.706Z,43.02
2023-04-12T06:56:27.883Z,43.02
2023-04-12T06:57:27.718Z,43.02
2023-04-12T06:58:27.704Z,42.90
2023-04-12T06:59:27.719Z,42.93
2023-04-12T07:00:27.753Z,42.90
2023-04-12T07:01:27.810Z,42.93
2023-04-12T07:02:27.729Z,43.02
2023-04-12T07:03:27.786Z,43.02
2023-04-12T07:04:27.696Z,42.73
2023-04-12T07:05:27.707Z,43.21
2023-04-12T07:06:27.727Z,43.21
2023-04-12T07:07:27.694Z,42.93
2023-04-12T07:08:30.135Z,42.63
2023-04-12T07:09:27.762Z,42.73
2023-04-12T07:10:27.781Z,42.83
2023-04-12T07:11:27.681Z,42.73
2023-04-12T07:12:27.641Z,43.02
2023-04-12T07:13:27.677Z,42.93
2023-04-12T07:14:27.667Z,42.93
2023-04-12T07:15:27.780Z,42.93
2023-04-12T07:16:27.689Z,42.93
2023-04-12T07:17:27.661Z,43.02
2023-04-12T07:18:27.625Z,43.02
2023-04-12T07:19:27.645Z,43.02
2023-04-12T07:20:27.684Z,43.02
2023-04-12T07:21:27.890Z,42.83
2023-04-12T07:22:27.630Z,42.83
2023-04-12T07:23:27.614Z,42.93
2023-04-12T07:24:27.623Z,42.93
2023-04-12T07:25:27.661Z,42.93
2023-04-12T07:26:27.832Z,42.93
2023-04-12T07:27:27.597Z,42.93
2023-04-12T07:28:27.630Z,42.73
2023-04-12T07:29:28.422Z,42.93
2023-04-12T07:30:27.659Z,43.12
2023-04-12T07:31:28.513Z,42.93
2023-04-12T07:32:27.754Z,42.73
2023-04-12T07:33:27.734Z,42.83
2023-04-12T07:34:27.738Z,42.73
2023-04-12T07:35:27.607Z,42.73
2023-04-12T07:36:27.585Z,43.02
2023-04-12T07:37:27.585Z,42.93
2023-04-12T07:38:27.597Z,42.93
2023-04-12T07:39:27.771Z,42.93
2023-04-12T07:40:27.602Z,42.93
2023-04-12T07:41:27.572Z,42.93
2023-04-12T07:42:27.607Z,42.83
2023-04-12T07:43:27.589Z,42.83
2023-04-12T07:44:27.564Z,42.83
2023-04-12T07:45:27.544Z,43.02
2023-04-12T07:46:27.754Z,42.93
2023-04-12T07:47:27.640Z,43.12
2023-04-12T07:48:27.549Z,43.02
2023-04-12T07:49:27.612Z,43.12
2023-04-12T07:50:28.430Z,43.02
2023-04-12T07:51:28.675Z,42.93
2023-04-12T07:52:27.548Z,42.83
2023-04-12T07:53:27.593Z,42.83
2023-04-12T07:54:27.629Z,42.93
2023-04-12T07:55:34.528Z,43.12
2023-04-12T07:56:30.189Z,43.02
2023-04-12T07:57:28.437Z,42.93
2023-04-12T07:58:27.711Z,42.93
2023-04-12T07:59:27.548Z,43.02
2023-04-12T08:00:27.516Z,42.93
2023-04-12T08:01:27.502Z,43.12
2023-04-12T08:02:27.719Z,42.93
2023-04-12T08:03:27.662Z,43.12
2023-04-12T08:04:27.845Z,43.12
2023-04-12T08:06:30.567Z,42.93
2023-04-12T08:07:27.522Z,42.93
2023-04-12T08:08:27.499Z,43.02
2023-04-12T08:09:27.493Z,43.02
2023-04-12T08:10:27.499Z,43.12
2023-04-12T08:11:27.517Z,43.04
2023-04-12T08:12:27.551Z,43.12
2023-04-12T08:13:27.539Z,43.02
2023-04-12T08:14:27.501Z,43.04
2023-04-12T08:15:27.506Z,42.94
2023-04-12T08:16:27.613Z,43.14
2023-04-12T08:17:27.638Z,43.04
2023-04-12T08:18:27.483Z,43.04
2023-04-12T08:19:27.468Z,43.14
2023-04-12T08:20:27.448Z,42.94
2023-04-12T08:21:29.476Z,43.14
2023-04-12T08:22:27.459Z,43.24
2023-04-12T08:23:27.445Z,43.24
2023-04-12T08:24:27.445Z,43.14
2023-04-12T08:25:27.507Z,43.14
2023-04-12T08:26:27.455Z,43.24
2023-04-12T08:27:27.439Z,43.04
2023-04-12T08:28:27.444Z,42.94
2023-04-12T08:29:27.466Z,43.04
2023-04-12T08:30:27.421Z,43.14
2023-04-12T08:31:27.473Z,43.04
2023-04-12T08:32:27.541Z,43.33
2023-04-12T08:33:27.453Z,43.33
2023-04-12T08:34:27.410Z,43.43
2023-04-12T08:35:27.453Z,43.52
2023-04-12T08:36:27.394Z,43.52
2023-04-12T08:37:27.438Z,43.62
2023-04-12T08:38:41.566Z,43.62
2023-04-12T08:39:27.392Z,43.52
2023-04-12T08:40:27.391Z,43.24
2023-04-12T08:41:27.405Z,43.33
2023-04-12T08:43:27.429Z,43.62
2023-04-12T08:44:27.378Z,43.43
2023-04-12T08:45:27.381Z,43.33
2023-04-12T08:46:27.404Z,43.43
2023-04-12T08:47:27.601Z,43.43
2023-04-12T08:48:27.402Z,43.33
2023-04-12T08:49:27.498Z,43.52
2023-04-12T08:50:27.441Z,43.24
2023-04-12T08:51:27.374Z,43.52
2023-04-12T08:52:27.402Z,43.43
2023-04-12T08:53:27.378Z,43.24
2023-04-12T08:54:27.431Z,43.14
2023-04-12T08:55:27.356Z,43.43
2023-04-12T08:56:27.358Z,43.52
2023-04-12T08:57:27.360Z,43.43
2023-04-12T08:58:27.428Z,43.62
2023-04-12T08:59:27.358Z,43.43
2023-04-12T09:00:27.371Z,43.52
2023-04-12T09:01:27.489Z,43.24
2023-04-12T09:04:59.973Z,43.33
2023-04-12T09:05:59.910Z,43.52
2023-04-12T09:06:59.929Z,43.24
2023-04-12T09:07:59.893Z,43.14
2023-04-12T09:08:59.892Z,43.14
2023-04-12T09:09:59.927Z,43.14
2023-04-12T09:11:59.951Z,43.33
2023-04-12T09:13:00.051Z,43.33
2023-04-12T09:14:00.185Z,43.43
2023-04-12T09:14:59.961Z,43.35
2023-04-12T09:15:59.920Z,43.45
2023-04-12T09:16:59.916Z,43.33
2023-04-12T09:17:59.936Z,43.33
2023-04-12T09:18:59.998Z,43.45
2023-04-12T09:19:59.874Z,43.24
2023-04-12T09:20:59.857Z,43.43
2023-04-12T09:21:59.880Z,43.24
2023-04-12T09:22:59.891Z,43.43
2023-04-12T09:23:59.934Z,43.43
2023-04-12T09:24:59.991Z,43.33
2023-04-12T09:25:59.901Z,43.62
2023-04-12T09:26:59.926Z,43.74
2023-04-12T09:28:00.063Z,43.43
2023-04-12T09:28:59.895Z,43.43
2023-04-12T09:30:00.141Z,43.62
2023-04-12T09:30:59.941Z,43.35
2023-04-12T09:32:00.839Z,43.35
2023-04-12T09:32:59.968Z,43.74
2023-04-12T09:33:59.944Z,43.45
2023-04-12T09:34:59.863Z,43.45
2023-04-12T09:35:59.869Z,43.45
2023-04-12T09:36:59.874Z,43.62
2023-04-12T09:38:01.006Z,43.74
2023-04-12T09:38:59.816Z,43.54
2023-04-12T09:39:59.838Z,43.62
2023-04-12T09:40:59.793Z,43.33
2023-04-12T09:41:59.912Z,43.91
2023-04-12T09:42:59.826Z,43.93
2023-04-12T09:44:00.210Z,43.93
2023-04-12T09:44:59.804Z,44.01
2023-04-12T09:45:59.855Z,43.81
2023-04-12T09:46:59.863Z,43.81
2023-04-12T09:47:59.892Z,43.81
2023-04-12T09:49:00.037Z,43.81
2023-04-12T09:49:59.882Z,43.72
2023-04-12T09:50:59.784Z,43.91
2023-04-12T09:51:59.820Z,43.72
2023-04-12T09:52:59.869Z,43.72
2023-04-12T09:54:01.418Z,43.91
2023-04-12T09:55:59.811Z,44.01
2023-04-12T09:56:59.773Z,44.10
2023-04-12T09:57:59.769Z,43.72
2023-04-12T09:58:59.776Z,44.10
2023-04-12T09:59:59.781Z,43.91
2023-04-12T10:00:59.784Z,43.84
2023-04-12T10:01:59.911Z,43.91
2023-04-12T10:13:19.514Z,43.62
2023-04-12T10:14:19.502Z,43.62
2023-04-12T10:15:19.437Z,43.81
2023-04-12T10:16:19.419Z,43.72
2023-04-12T10:17:19.454Z,43.72
2023-04-12T10:18:19.458Z,43.81
2023-04-12T10:19:19.397Z,44.01
2023-04-12T10:20:19.531Z,43.81
2023-04-12T10:21:19.415Z,44.20
2023-04-12T10:22:19.514Z,44.20
2023-04-12T10:23:19.445Z,44.20
2023-04-12T10:24:19.492Z,44.29
2023-04-12T10:26:19.376Z,44.10
2023-04-12T10:27:19.406Z,44.10
2023-04-12T10:28:19.510Z,44.20
2023-04-12T10:29:19.440Z,44.20
2023-04-12T10:30:19.346Z,44.10
2023-04-12T10:31:19.497Z,44.01
2023-04-12T10:32:19.400Z,44.39
2023-04-12T10:33:19.430Z,44.29
2023-04-12T10:34:19.490Z,44.29
2023-04-12T10:36:19.451Z,44.49
2023-04-12T10:37:19.383Z,44.49
2023-04-12T10:38:19.433Z,44.39
2023-04-12T10:39:19.376Z,44.29
2023-04-12T10:40:19.461Z,44.49
2023-04-12T10:41:19.348Z,44.29
2023-04-12T10:42:19.339Z,44.49
2023-04-12T10:43:19.412Z,44.59
2023-04-12T10:44:19.379Z,44.20
2023-04-12T10:45:19.434Z,44.29
2023-04-12T10:46:19.369Z,43.81
2023-04-12T10:47:19.493Z,44.49
2023-04-12T10:48:19.430Z,44.59
2023-04-12T10:49:19.325Z,44.59
2023-04-12T10:50:19.344Z,44.59
2023-04-12T10:51:21.520Z,44.49
2023-04-12T10:52:19.347Z,44.01
2023-04-12T10:53:19.312Z,44.49
2023-04-12T10:54:19.323Z,44.39
2023-04-12T10:55:19.334Z,44.49
2023-04-12T10:56:19.284Z,44.60
2023-04-12T10:57:19.294Z,44.59
2023-04-12T10:58:19.292Z,44.49
2023-04-12T10:59:19.275Z,44.60
2023-04-12T11:00:19.352Z,44.51
2023-04-12T11:01:19.599Z,44.51
2023-04-12T11:02:19.346Z,44.51
2023-04-12T11:03:19.548Z,44.51
2023-04-12T11:04:19.548Z,44.51
2023-04-12T11:05:19.458Z,44.51
2023-04-12T11:06:27.131Z,44.60
2023-04-12T11:07:19.294Z,44.60
2023-04-12T11:08:19.283Z,44.51
2023-04-12T11:09:19.348Z,44.51
2023-04-12T11:10:19.283Z,44.51
2023-04-12T11:11:19.339Z,44.51
2023-04-12T11:12:19.333Z,44.51
2023-04-12T11:13:19.353Z,44.42
2023-04-12T11:14:19.258Z,44.51
2023-04-12T11:15:19.365Z,44.42
2023-04-12T11:16:19.470Z,44.51
2023-04-12T11:17:20.155Z,44.51
2023-04-12T11:18:19.259Z,44.51
2023-04-12T11:19:19.328Z,44.60
2023-04-12T11:20:19.270Z,44.70
2023-04-12T11:21:19.279Z,44.42
2023-04-12T11:22:19.235Z,44.51
2023-04-12T11:23:19.220Z,44.60
2023-04-12T11:24:19.313Z,44.60
2023-04-12T11:25:19.237Z,44.22
2023-04-12T11:26:19.206Z,44.70
2023-04-12T11:27:19.349Z,44.70
2023-04-12T11:28:28.875Z,44.70
2023-04-12T11:29:19.208Z,44.22
2023-04-12T11:30:19.229Z,44.05
2023-04-12T11:31:19.249Z,44.53
2023-04-12T11:32:19.440Z,44.53
2023-04-12T11:33:19.298Z,44.24
2023-04-12T11:34:19.205Z,44.43
2023-04-12T11:35:19.184Z,44.53
2023-04-12T11:36:19.193Z,44.24
2023-04-12T11:37:19.181Z,44.63
2023-04-12T11:38:19.192Z,44.65
2023-04-12T11:39:19.184Z,44.65
2023-04-12T11:40:20.179Z,44.65
2023-04-12T11:41:19.223Z,44.56
2023-04-12T11:42:19.188Z,44.53
2023-04-12T11:43:19.203Z,44.07
2023-04-12T11:44:19.191Z,44.56
2023-04-12T11:45:19.197Z,44.65
2023-04-12T11:46:19.208Z,43.88
2023-04-12T11:47:19.156Z,44.56
2023-04-12T11:48:19.197Z,44.56
2023-04-12T11:49:19.188Z,44.56
2023-04-12T11:50:19.163Z,44.65
2023-04-12T11:51:19.198Z,44.36
2023-04-12T11:52:19.178Z,44.26
2023-04-12T11:53:19.202Z,44.38
2023-04-12T11:54:19.160Z,44.48
2023-04-12T11:55:19.151Z,44.19
2023-04-12T11:56:19.146Z,44.57
2023-04-12T11:57:19.158Z,44.57
2023-04-12T11:58:19.167Z,44.57
2023-04-12T11:59:19.161Z,44.57
2023-04-12T12:00:19.146Z,44.67
2023-04-12T12:01:19.220Z,44.67
2023-04-12T12:02:23.497Z,44.57
2023-04-12T12:03:19.321Z,44.57
2023-04-12T12:04:19.333Z,44.67
2023-04-12T12:05:19.358Z,44.67
2023-04-12T12:06:19.316Z,44.67
2023-04-12T12:07:19.494Z,44.67
2023-04-12T12:08:19.173Z,44.67
2023-04-12T12:09:19.135Z,44.67
2023-04-12T12:10:36.635Z,44.57
2023-04-12T12:11:19.142Z,44.67
2023-04-12T12:12:19.162Z,44.67
2023-04-12T12:13:19.142Z,44.57
2023-04-12T12:14:19.124Z,44.65
2023-04-12T12:15:19.221Z,44.36
2023-04-12T12:16:19.199Z,44.65
2023-04-12T12:17:19.206Z,44.87
2023-04-12T12:18:19.188Z,44.56
2023-04-12T12:19:19.228Z,44.84
2023-04-12T12:20:19.207Z,44.84
2023-04-12T12:21:19.209Z,44.75
2023-04-12T12:22:19.151Z,44.75
2023-04-12T12:23:19.118Z,44.75
2023-04-12T12:24:19.111Z,44.84
2023-04-12T12:25:19.124Z,44.75
2023-04-12T12:26:19.569Z,44.84
2023-04-12T12:27:19.161Z,44.84
2023-04-12T12:28:19.186Z,44.75
2023-04-12T12:29:19.119Z,44.75
2023-04-12T12:30:19.160Z,44.84
2023-04-12T12:31:19.124Z,44.36
2023-04-12T12:32:19.152Z,44.65
2023-04-12T12:33:19.119Z,44.65
2023-04-12T12:34:19.121Z,44.75
2023-04-12T12:35:21.097Z,44.53
2023-04-12T12:36:19.087Z,44.75
2023-04-12T12:37:19.103Z,44.65
2023-04-12T12:38:19.092Z,44.63
2023-04-12T12:39:19.095Z,44.73
2023-04-12T12:40:19.100Z,44.63
2023-04-12T12:41:19.130Z,44.92
2023-04-12T12:42:19.077Z,44.73
2023-04-12T12:43:19.098Z,44.92
2023-04-12T12:44:19.090Z,44.63
2023-04-12T12:45:19.097Z,44.92
2023-04-12T12:46:19.082Z,44.92
2023-04-12T12:47:19.119Z,44.82
2023-04-12T12:48:19.133Z,45.01
2023-04-12T12:49:19.095Z,45.21
2023-04-12T12:50:19.058Z,45.21
2023-04-12T12:51:19.055Z,45.28
2023-04-12T12:52:19.066Z,45.28
2023-04-12T12:53:19.083Z,45.18
2023-04-12T12:54:32.337Z,44.70
2023-04-12T12:55:19.062Z,45.28
2023-04-12T12:56:19.043Z,44.70
2023-04-12T12:57:19.032Z,45.38
2023-04-12T12:58:19.044Z,45.28
2023-04-12T12:59:19.064Z,45.28
2023-04-12T13:00:19.050Z,45.38
2023-04-12T13:01:19.109Z,45.28
2023-04-12T13:02:19.128Z,44.60
2023-04-12T13:03:19.350Z,44.60
2023-04-12T13:04:19.120Z,44.60
2023-04-12T13:05:19.135Z,45.28
2023-04-12T13:06:19.049Z,45.38
2023-04-12T13:07:19.049Z,45.28
2023-04-12T13:08:19.080Z,44.60
2023-04-12T13:09:19.046Z,45.18
2023-04-12T13:10:19.019Z,45.38
2023-04-12T13:11:19.030Z,45.18
2023-04-12T13:12:19.036Z,45.18
2023-04-12T13:13:19.025Z,45.28
2023-04-12T13:14:18.998Z,45.28
2023-04-12T13:15:23.037Z,45.28
2023-04-12T13:16:19.099Z,45.38
2023-04-12T13:17:19.017Z,45.28
2023-04-12T13:18:19.022Z,45.38
2023-04-12T13:21:53.091Z,44.70
2023-04-12T13:22:51.530Z,45.38
2023-04-12T13:23:51.519Z,45.28
2023-04-12T13:24:52.706Z,45.40
2023-04-12T13:25:51.511Z,45.21
2023-04-12T13:26:51.509Z,45.21
2023-04-12T13:27:51.579Z,45.21
2023-04-12T13:28:51.494Z,44.73
2023-04-12T13:29:51.486Z,45.31
2023-04-12T13:30:51.505Z,45.31
2023-04-12T13:31:51.510Z,45.40
2023-04-12T13:32:51.523Z,45.21
2023-04-12T13:33:51.492Z,45.31
2023-04-12T13:34:51.483Z,45.14
2023-04-12T13:35:51.493Z,44.84
2023-04-12T13:36:51.472Z,44.94
2023-04-12T13:37:51.487Z,44.94
2023-04-12T13:38:51.506Z,45.04
2023-04-12T13:39:51.485Z,44.56
2023-04-12T13:40:51.481Z,44.56
2023-04-12T13:41:51.569Z,44.67
2023-04-12T13:42:53.175Z,44.67
2023-04-12T13:43:51.506Z,44.46
2023-04-12T13:44:51.475Z,45.06
2023-04-12T13:45:51.483Z,45.25
2023-04-12T13:46:51.460Z,45.25
2023-04-12T13:47:51.540Z,45.25
2023-04-12T13:48:51.487Z,45.35
2023-04-12T13:49:51.470Z,45.42
2023-04-12T13:50:52.392Z,45.45
2023-04-12T13:51:51.455Z,45.33
2023-04-12T13:52:51.456Z,45.62
2023-04-12T13:53:51.461Z,45.33
2023-04-12T13:54:51.465Z,45.42
2023-04-12T13:55:51.449Z,45.72
2023-04-12T13:56:51.468Z,45.42
2023-04-12T13:57:51.474Z,45.33
2023-04-12T13:58:51.455Z,44.94
2023-04-12T13:59:51.462Z,45.33
2023-04-12T14:00:51.512Z,45.33
2023-04-12T14:01:51.551Z,45.23
2023-04-12T14:02:51.646Z,45.04
2023-04-12T14:03:51.483Z,45.62
2023-04-12T14:04:51.488Z,45.62
2023-04-12T14:05:51.424Z,45.14
2023-04-12T14:06:51.431Z,45.59
2023-04-12T14:07:51.435Z,45.59
2023-04-12T14:08:51.440Z,45.01
2023-04-12T14:09:51.418Z,45.50
2023-04-12T14:10:51.440Z,45.50
2023-04-12T14:11:51.417Z,45.50
2023-04-12T14:12:51.446Z,45.50
2023-04-12T14:13:51.510Z,45.50
2023-04-12T14:14:51.441Z,45.21
2023-04-12T14:15:51.402Z,45.21
2023-04-12T14:16:51.482Z,45.40
2023-04-12T14:17:51.568Z,45.59
2023-04-12T14:18:51.428Z,45.50
2023-04-12T14:19:51.402Z,45.40
2023-04-12T14:20:51.392Z,45.50
2023-04-12T14:21:51.392Z,45.50
2023-04-12T14:22:51.393Z,45.50
2023-04-12T14:23:51.381Z,45.40
2023-04-12T14:24:51.421Z,45.50
2023-04-12T14:25:51.398Z,45.59
2023-04-12T14:26:51.383Z,45.50
2023-04-12T14:27:51.379Z,45.21
2023-04-12T14:28:51.406Z,45.31
2023-04-12T14:29:51.385Z,45.31
2023-04-12T14:30:51.402Z,45.31
2023-04-12T14:31:51.377Z,45.21
2023-04-12T14:32:51.459Z,45.50
2023-04-12T14:33:51.361Z,45.31
2023-04-12T14:34:51.374Z,45.31
2023-04-12T14:35:51.403Z,45.31
2023-04-12T14:36:51.378Z,45.23
2023-04-12T14:37:51.404Z,45.52
2023-04-12T14:38:51.383Z,45.62
2023-04-12T14:39:51.387Z,45.14
2023-04-12T14:40:51.351Z,44.94
2023-04-12T14:41:51.345Z,44.94
2023-04-12T14:42:51.364Z,45.54
2023-04-12T14:43:51.355Z,45.74
2023-04-12T14:44:51.360Z,45.35
2023-04-12T14:45:51.390Z,44.67
2023-04-12T14:46:51.433Z,45.35
2023-04-12T14:47:51.444Z,45.28
2023-04-12T14:48:51.348Z,45.25
2023-04-12T14:49:51.335Z,45.35
2023-04-12T14:50:51.340Z,45.35
2023-04-12T14:51:51.345Z,45.35
2023-04-12T14:52:51.345Z,45.37
2023-04-12T14:53:51.335Z,45.47
2023-04-12T14:54:51.360Z,45.47
2023-04-12T14:55:51.356Z,45.28
2023-04-12T14:56:54.320Z,45.28
2023-04-12T14:57:51.341Z,45.28
2023-04-12T14:58:51.318Z,45.08
2023-04-12T14:59:51.431Z,45.47
2023-04-12T15:00:51.709Z,45.28
2023-04-12T15:01:51.396Z,45.57
2023-04-12T15:02:51.442Z,45.37
2023-04-12T15:03:51.704Z,45.37
2023-04-12T15:04:51.547Z,45.37
2023-04-12T15:05:51.340Z,45.66
2023-04-12T15:06:51.324Z,45.66
2023-04-12T15:07:51.309Z,45.54
2023-04-12T15:08:51.316Z,45.54
2023-04-12T15:09:51.327Z,45.66
2023-04-12T15:10:51.330Z,45.57
2023-04-12T15:11:51.315Z,45.47
2023-04-12T15:12:51.302Z,45.08
2023-04-12T15:13:51.309Z,44.89
2023-04-12T15:14:51.330Z,45.66
2023-04-12T15:15:51.320Z,45.28
2023-04-12T15:16:51.452Z,45.28
2023-04-12T15:17:51.383Z,45.66
2023-04-12T15:18:51.388Z,45.66
2023-04-12T15:19:51.312Z,45.28
2023-04-12T15:20:51.302Z,45.66
2023-04-12T15:21:51.340Z,45.66
2023-04-12T15:22:51.306Z,45.08
2023-04-12T15:23:51.290Z,45.35
2023-04-12T15:24:51.297Z,45.45
2023-04-12T15:25:51.319Z,45.45
2023-04-12T15:26:51.315Z,45.45
2023-04-12T15:27:51.306Z,45.74
2023-04-12T15:28:51.355Z,45.16
2023-04-12T15:29:51.336Z,45.54
2023-04-12T15:30:51.283Z,45.64
2023-04-12T15:31:51.334Z,45.64
2023-04-12T15:32:51.326Z,45.74
2023-04-12T15:33:51.301Z,45.72
2023-04-12T15:34:51.291Z,45.72
2023-04-12T15:35:51.286Z,45.81
2023-04-12T15:36:51.383Z,45.81
2023-04-12T15:37:51.303Z,45.81
2023-04-12T15:38:51.272Z,45.52
2023-04-12T15:39:51.293Z,45.72
2023-04-12T15:40:51.274Z,45.52
2023-04-12T15:41:51.270Z,45.81
2023-04-12T15:42:51.303Z,45.81
2023-04-12T15:43:51.320Z,45.33
2023-04-12T15:44:51.286Z,45.33
2023-04-12T15:45:51.341Z,45.81
2023-04-12T15:47:07.558Z,45.33
2023-04-12T15:47:51.379Z,46.30
2023-04-12T15:48:51.267Z,45.81
2023-04-12T15:49:51.275Z,45.59
2023-04-12T15:50:51.304Z,46.68
2023-04-12T15:51:51.271Z,45.50
2023-04-12T15:52:51.257Z,45.79
2023-04-12T15:53:51.248Z,45.69
2023-04-12T15:54:51.273Z,45.98
2023-04-12T15:55:51.272Z,45.89
2023-04-12T15:56:51.241Z,45.59
2023-04-12T15:57:51.283Z,45.98
2023-04-12T15:58:51.236Z,45.59
2023-04-12T15:59:51.276Z,45.86
2023-04-12T16:00:51.246Z,46.06
2023-04-12T16:12:31.080Z,45.75
2023-04-12T16:13:30.941Z,45.65
2023-04-12T16:14:30.940Z,45.75
2023-04-12T16:15:30.973Z,45.84
2023-04-12T16:16:30.979Z,45.75
2023-04-12T16:17:30.957Z,45.94
2023-04-12T16:18:30.914Z,46.42
2023-04-12T16:19:30.894Z,46.33
2023-04-12T16:20:30.917Z,46.33
2023-04-12T16:21:30.902Z,45.94
2023-04-12T16:22:30.894Z,46.33
2023-04-12T16:23:30.904Z,46.23
2023-04-12T16:24:30.904Z,46.42
2023-04-12T16:25:30.946Z,46.49
2023-04-12T16:26:30.903Z,46.42
2023-04-12T16:27:30.902Z,46.69
2023-04-12T16:28:30.899Z,46.42
2023-04-12T16:29:30.866Z,46.11
2023-04-12T16:30:30.976Z,46.49
2023-04-12T16:31:30.893Z,46.49
2023-04-12T16:32:30.913Z,46.30
2023-04-12T16:33:30.904Z,46.59
2023-04-12T16:34:30.866Z,46.30
2023-04-12T16:35:32.675Z,46.30
2023-04-12T16:36:30.841Z,46.30
2023-04-12T16:37:30.859Z,46.30
2023-04-12T16:38:30.846Z,46.40
2023-04-12T16:39:30.837Z,46.30
2023-04-12T16:40:30.823Z,46.49
2023-04-12T16:41:30.828Z,46.59
2023-04-12T16:42:30.823Z,46.69
2023-04-12T16:43:30.841Z,46.76
2023-04-12T16:44:30.863Z,46.76
2023-04-12T16:45:30.817Z,46.66
2023-04-12T16:46:31.002Z,46.56
2023-04-12T16:47:30.848Z,46.56
2023-04-12T16:48:30.822Z,46.66
2023-04-12T16:49:30.800Z,46.76
2023-04-12T16:50:30.834Z,46.66
2023-04-12T16:51:36.782Z,46.66
2023-04-12T16:52:30.798Z,46.56
2023-04-12T16:53:30.803Z,46.47
2023-04-12T16:54:30.797Z,46.86
2023-04-12T16:55:30.816Z,46.66
2023-04-12T16:56:30.788Z,46.76
2023-04-12T16:57:30.787Z,46.76
2023-04-12T16:58:30.782Z,46.66
2023-04-12T16:59:30.778Z,46.66
2023-04-12T17:00:30.774Z,46.56
2023-04-12T17:01:30.780Z,46.76
2023-04-12T17:02:30.931Z,46.66
2023-04-12T17:03:30.853Z,46.95
2023-04-12T17:04:30.900Z,46.66
2023-04-12T17:05:30.751Z,46.76
2023-04-12T17:06:30.761Z,46.86
2023-04-12T17:07:30.740Z,46.86
2023-04-12T17:08:30.756Z,46.73
2023-04-12T17:09:30.749Z,46.73
2023-04-12T17:10:30.732Z,46.93
2023-04-12T17:11:30.721Z,46.86
2023-04-12T17:12:30.729Z,46.86
2023-04-12T17:13:30.728Z,46.86
2023-04-12T17:14:30.755Z,46.83
2023-04-12T17:15:30.729Z,46.93
2023-04-12T17:16:30.799Z,46.66
2023-04-12T17:17:30.741Z,46.64
2023-04-12T17:18:30.723Z,46.66
2023-04-12T17:19:30.720Z,46.86
2023-04-12T17:20:30.698Z,46.83
2023-04-12T17:21:30.693Z,46.86
2023-04-12T17:22:30.694Z,46.56
2023-04-12T17:23:30.678Z,46.76
2023-04-12T17:24:30.699Z,46.86
2023-04-12T17:25:30.713Z,46.76